sensor_id;sensor_type;location;lat;lon;timestamp;P1;durP1;ratioP1;P2;durP2;ratioP2
10687;SDS011;5392;42.688;23.298;2022-08-19T00:01:58;4.30;;;2.35;;
10687;SDS011;5392;42.688;23.298;2022-08-19T00:04:30;3.65;;;2.58;;
10687;SDS011;5392;42.688;23.298;2022-08-19T00:07:02;2.88;;;2.78;;
10687;SDS011;5392;42.688;23.298;2022-08-19T00:09:30;3.08;;;2.88;;
10687;SDS011;5392;42.688;23.298;2022-08-19T00:11:58;3.40;;;2.63;;
10687;SDS011;5392;42.688;23.298;2022-08-19T00:14:25;5.22;;;2.55;;
10687;SDS011;5392;42.688;23.298;2022-08-19T00:16:53;6.07;;;3.10;;
10687;SDS011;5392;42.688;23.298;2022-08-19T00:19:21;3.80;;;3.55;;
10687;SDS011;5392;42.688;23.298;2022-08-19T00:21:48;4.43;;;3.05;;
10687;SDS011;5392;42.688;23.298;2022-08-19T00:24:15;6.60;;;3.83;;
10687;SDS011;5392;42.688;23.298;2022-08-19T00:26:42;3.50;;;3.30;;
10687;SDS011;5392;42.688;23.298;2022-08-19T00:29:11;2.92;;;2.83;;
10687;SDS011;5392;42.688;23.298;2022-08-19T00:31:39;3.47;;;3.20;;
10687;SDS011;5392;42.688;23.298;2022-08-19T00:34:08;3.63;;;3.20;;
10687;SDS011;5392;42.688;23.298;2022-08-19T00:36:35;3.60;;;3.30;;
10687;SDS011;5392;42.688;23.298;2022-08-19T00:39:03;3.78;;;3.50;;
10687;SDS011;5392;42.688;23.298;2022-08-19T00:41:30;3.85;;;3.55;;
10687;SDS011;5392;42.688;23.298;2022-08-19T00:44:00;3.92;;;3.35;;
10687;SDS011;5392;42.688;23.298;2022-08-19T00:46:40;3.90;;;3.60;;
10687;SDS011;5392;42.688;23.298;2022-08-19T00:49:20;6.72;;;3.70;;
10687;SDS011;5392;42.688;23.298;2022-08-19T00:51:53;3.63;;;3.33;;
10687;SDS011;5392;42.688;23.298;2022-08-19T00:54:26;4.25;;;3.65;;
10687;SDS011;5392;42.688;23.298;2022-08-19T00:56:56;4.15;;;3.80;;
10687;SDS011;5392;42.688;23.298;2022-08-19T00:59:24;6.78;;;3.78;;
10687;SDS011;5392;42.688;23.298;2022-08-19T01:02:12;5.55;;;3.83;;
10687;SDS011;5392;42.688;23.298;2022-08-19T01:04:38;5.80;;;4.15;;
10687;SDS011;5392;42.688;23.298;2022-08-19T01:07:05;3.78;;;3.53;;
10687;SDS011;5392;42.688;23.298;2022-08-19T01:09:33;3.72;;;3.50;;
10687;SDS011;5392;42.688;23.298;2022-08-19T01:12:00;3.83;;;3.50;;
10687;SDS011;5392;42.688;23.298;2022-08-19T01:14:27;4.45;;;4.05;;
10687;SDS011;5392;42.688;23.298;2022-08-19T01:16:56;4.22;;;3.20;;
10687;SDS011;5392;42.688;23.298;2022-08-19T01:19:32;2.97;;;2.78;;
10687;SDS011;5392;42.688;23.298;2022-08-19T01:24:59;3.90;;;3.58;;
10687;SDS011;5392;42.688;23.298;2022-08-19T01:27:27;4.38;;;3.95;;
10687;SDS011;5392;42.688;23.298;2022-08-19T01:30:09;4.07;;;3.75;;
10687;SDS011;5392;42.688;23.298;2022-08-19T01:32:41;3.88;;;3.58;;
10687;SDS011;5392;42.688;23.298;2022-08-19T01:35:10;3.83;;;3.60;;
10687;SDS011;5392;42.688;23.298;2022-08-19T01:37:45;4.32;;;4.05;;
10687;SDS011;5392;42.688;23.298;2022-08-19T01:40:12;3.58;;;3.47;;
10687;SDS011;5392;42.688;23.298;2022-08-19T01:42:40;5.13;;;3.90;;
10687;SDS011;5392;42.688;23.298;2022-08-19T01:45:07;4.78;;;3.72;;
10687;SDS011;5392;42.688;23.298;2022-08-19T01:47:35;3.25;;;3.05;;
10687;SDS011;5392;42.688;23.298;2022-08-19T01:50:04;5.05;;;4.25;;
10687;SDS011;5392;42.688;23.298;2022-08-19T01:52:34;6.20;;;3.60;;
10687;SDS011;5392;42.688;23.298;2022-08-19T01:55:03;3.83;;;3.60;;
10687;SDS011;5392;42.688;23.298;2022-08-19T01:57:32;5.30;;;3.90;;
10687;SDS011;5392;42.688;23.298;2022-08-19T01:59:59;4.30;;;3.97;;
10687;SDS011;5392;42.688;23.298;2022-08-19T02:02:29;4.97;;;4.13;;
10687;SDS011;5392;42.688;23.298;2022-08-19T02:04:55;4.20;;;3.90;;
10687;SDS011;5392;42.688;23.298;2022-08-19T02:07:22;4.20;;;3.90;;
10687;SDS011;5392;42.688;23.298;2022-08-19T02:09:49;3.70;;;3.45;;
10687;SDS011;5392;42.688;23.298;2022-08-19T02:12:16;4.40;;;4.20;;
10687;SDS011;5392;42.688;23.298;2022-08-19T02:14:42;5.90;;;4.10;;
10687;SDS011;5392;42.688;23.298;2022-08-19T02:17:09;3.92;;;3.72;;
10687;SDS011;5392;42.688;23.298;2022-08-19T02:19:36;4.97;;;3.55;;
10687;SDS011;5392;42.688;23.298;2022-08-19T02:22:06;3.97;;;3.58;;
10687;SDS011;5392;42.688;23.298;2022-08-19T02:24:33;4.38;;;3.78;;
10687;SDS011;5392;42.688;23.298;2022-08-19T02:27:00;4.65;;;4.32;;
10687;SDS011;5392;42.688;23.298;2022-08-19T02:29:26;4.50;;;3.92;;
10687;SDS011;5392;42.688;23.298;2022-08-19T02:31:53;4.05;;;3.83;;
10687;SDS011;5392;42.688;23.298;2022-08-19T02:34:20;4.10;;;3.70;;
10687;SDS011;5392;42.688;23.298;2022-08-19T02:36:47;4.05;;;3.95;;
10687;SDS011;5392;42.688;23.298;2022-08-19T02:39:17;4.75;;;4.10;;
10687;SDS011;5392;42.688;23.298;2022-08-19T02:41:44;5.20;;;4.55;;
10687;SDS011;5392;42.688;23.298;2022-08-19T02:44:11;4.32;;;3.92;;
10687;SDS011;5392;42.688;23.298;2022-08-19T02:46:56;4.85;;;4.15;;
10687;SDS011;5392;42.688;23.298;2022-08-19T02:49:23;5.13;;;4.47;;
10687;SDS011;5392;42.688;23.298;2022-08-19T02:51:50;5.40;;;5.10;;
10687;SDS011;5392;42.688;23.298;2022-08-19T02:54:17;5.07;;;4.47;;
10687;SDS011;5392;42.688;23.298;2022-08-19T02:56:44;6.00;;;4.68;;
10687;SDS011;5392;42.688;23.298;2022-08-19T02:59:11;6.28;;;4.63;;
10687;SDS011;5392;42.688;23.298;2022-08-19T03:01:39;5.60;;;5.20;;
10687;SDS011;5392;42.688;23.298;2022-08-19T03:04:08;6.63;;;5.53;;
10687;SDS011;5392;42.688;23.298;2022-08-19T03:06:37;5.93;;;5.18;;
10687;SDS011;5392;42.688;23.298;2022-08-19T03:09:05;6.85;;;6.10;;
10687;SDS011;5392;42.688;23.298;2022-08-19T03:11:33;5.88;;;5.47;;
10687;SDS011;5392;42.688;23.298;2022-08-19T03:14:00;8.10;;;5.68;;
10687;SDS011;5392;42.688;23.298;2022-08-19T03:16:29;6.40;;;6.00;;
10687;SDS011;5392;42.688;23.298;2022-08-19T03:18:59;5.50;;;5.07;;
10687;SDS011;5392;42.688;23.298;2022-08-19T03:21:29;6.05;;;5.60;;
10687;SDS011;5392;42.688;23.298;2022-08-19T03:24:00;9.23;;;5.28;;
10687;SDS011;5392;42.688;23.298;2022-08-19T03:26:28;5.75;;;5.25;;
10687;SDS011;5392;42.688;23.298;2022-08-19T03:28:56;6.10;;;5.50;;
10687;SDS011;5392;42.688;23.298;2022-08-19T03:31:25;5.30;;;4.93;;
10687;SDS011;5392;42.688;23.298;2022-08-19T03:34:14;5.53;;;5.22;;
10687;SDS011;5392;42.688;23.298;2022-08-19T03:36:44;8.20;;;5.55;;
10687;SDS011;5392;42.688;23.298;2022-08-19T03:39:12;11.00;;;5.75;;
10687;SDS011;5392;42.688;23.298;2022-08-19T03:41:40;4.82;;;4.63;;
10687;SDS011;5392;42.688;23.298;2022-08-19T03:44:15;5.75;;;5.32;;
10687;SDS011;5392;42.688;23.298;2022-08-19T03:46:45;5.70;;;5.40;;
10687;SDS011;5392;42.688;23.298;2022-08-19T03:49:14;6.63;;;6.07;;
10687;SDS011;5392;42.688;23.298;2022-08-19T03:51:43;7.32;;;5.68;;
10687;SDS011;5392;42.688;23.298;2022-08-19T03:54:12;6.15;;;5.65;;
10687;SDS011;5392;42.688;23.298;2022-08-19T03:56:41;7.25;;;5.57;;
10687;SDS011;5392;42.688;23.298;2022-08-19T03:59:10;6.72;;;5.25;;
10687;SDS011;5392;42.688;23.298;2022-08-19T04:01:39;6.53;;;5.40;;
10687;SDS011;5392;42.688;23.298;2022-08-19T04:04:07;14.32;;;6.78;;
10687;SDS011;5392;42.688;23.298;2022-08-19T04:06:35;13.43;;;7.43;;
10687;SDS011;5392;42.688;23.298;2022-08-19T04:09:06;12.63;;;6.90;;
10687;SDS011;5392;42.688;23.298;2022-08-19T04:11:38;6.85;;;6.25;;
10687;SDS011;5392;42.688;23.298;2022-08-19T04:14:13;17.08;;;6.75;;
10687;SDS011;5392;42.688;23.298;2022-08-19T04:16:45;13.20;;;6.32;;
10687;SDS011;5392;42.688;23.298;2022-08-19T04:19:14;23.63;;;7.63;;
10687;SDS011;5392;42.688;23.298;2022-08-19T04:21:43;10.50;;;6.05;;
10687;SDS011;5392;42.688;23.298;2022-08-19T04:24:11;10.25;;;6.50;;
10687;SDS011;5392;42.688;23.298;2022-08-19T04:26:38;9.77;;;6.47;;
10687;SDS011;5392;42.688;23.298;2022-08-19T04:29:10;6.55;;;5.93;;
10687;SDS011;5392;42.688;23.298;2022-08-19T04:31:39;7.78;;;5.22;;
10687;SDS011;5392;42.688;23.298;2022-08-19T04:34:08;12.95;;;6.45;;
10687;SDS011;5392;42.688;23.298;2022-08-19T04:36:40;9.27;;;6.38;;
10687;SDS011;5392;42.688;23.298;2022-08-19T04:39:09;6.10;;;5.55;;
10687;SDS011;5392;42.688;23.298;2022-08-19T04:41:41;8.02;;;5.97;;
10687;SDS011;5392;42.688;23.298;2022-08-19T04:44:27;8.27;;;5.72;;
10687;SDS011;5392;42.688;23.298;2022-08-19T04:46:58;16.60;;;5.88;;
10687;SDS011;5392;42.688;23.298;2022-08-19T04:49:26;6.43;;;5.50;;
10687;SDS011;5392;42.688;23.298;2022-08-19T04:51:53;9.70;;;5.32;;
10687;SDS011;5392;42.688;23.298;2022-08-19T04:54:22;8.70;;;5.25;;
10687;SDS011;5392;42.688;23.298;2022-08-19T04:57:05;9.00;;;5.95;;
10687;SDS011;5392;42.688;23.298;2022-08-19T04:59:37;17.90;;;5.95;;
10687;SDS011;5392;42.688;23.298;2022-08-19T05:02:06;11.40;;;6.18;;
10687;SDS011;5392;42.688;23.298;2022-08-19T05:04:34;13.50;;;6.03;;
10687;SDS011;5392;42.688;23.298;2022-08-19T05:07:05;18.90;;;6.63;;
10687;SDS011;5392;42.688;23.298;2022-08-19T05:09:34;12.73;;;6.55;;
10687;SDS011;5392;42.688;23.298;2022-08-19T05:12:20;11.55;;;6.38;;
10687;SDS011;5392;42.688;23.298;2022-08-19T05:14:53;10.13;;;6.38;;
10687;SDS011;5392;42.688;23.298;2022-08-19T05:17:20;14.55;;;6.65;;
10687;SDS011;5392;42.688;23.298;2022-08-19T05:20:01;8.02;;;6.72;;
10687;SDS011;5392;42.688;23.298;2022-08-19T05:22:48;11.02;;;6.43;;
10687;SDS011;5392;42.688;23.298;2022-08-19T05:25:16;12.75;;;6.50;;
10687;SDS011;5392;42.688;23.298;2022-08-19T05:27:45;18.23;;;7.07;;
10687;SDS011;5392;42.688;23.298;2022-08-19T05:30:13;14.02;;;6.10;;
10687;SDS011;5392;42.688;23.298;2022-08-19T05:32:40;9.07;;;6.88;;
10687;SDS011;5392;42.688;23.298;2022-08-19T05:35:07;9.25;;;6.65;;
10687;SDS011;5392;42.688;23.298;2022-08-19T05:37:34;14.15;;;7.10;;
10687;SDS011;5392;42.688;23.298;2022-08-19T05:40:01;9.23;;;6.50;;
10687;SDS011;5392;42.688;23.298;2022-08-19T05:42:29;8.48;;;6.57;;
10687;SDS011;5392;42.688;23.298;2022-08-19T05:44:56;10.25;;;6.50;;
10687;SDS011;5392;42.688;23.298;2022-08-19T05:47:23;10.13;;;6.20;;
10687;SDS011;5392;42.688;23.298;2022-08-19T05:49:50;13.70;;;6.60;;
10687;SDS011;5392;42.688;23.298;2022-08-19T05:52:17;16.27;;;7.13;;
10687;SDS011;5392;42.688;23.298;2022-08-19T05:54:51;7.57;;;6.85;;
10687;SDS011;5392;42.688;23.298;2022-08-19T05:57:23;9.18;;;5.45;;
10687;SDS011;5392;42.688;23.298;2022-08-19T05:59:50;8.40;;;6.25;;
10687;SDS011;5392;42.688;23.298;2022-08-19T06:02:24;8.52;;;6.40;;
10687;SDS011;5392;42.688;23.298;2022-08-19T06:04:52;6.88;;;6.20;;
10687;SDS011;5392;42.688;23.298;2022-08-19T06:07:19;8.68;;;6.25;;
10687;SDS011;5392;42.688;23.298;2022-08-19T06:09:46;9.85;;;6.07;;
10687;SDS011;5392;42.688;23.298;2022-08-19T06:12:26;9.38;;;6.28;;
10687;SDS011;5392;42.688;23.298;2022-08-19T06:14:54;7.55;;;5.85;;
10687;SDS011;5392;42.688;23.298;2022-08-19T06:17:27;8.10;;;5.38;;
10687;SDS011;5392;42.688;23.298;2022-08-19T06:19:57;9.68;;;6.10;;
10687;SDS011;5392;42.688;23.298;2022-08-19T06:22:25;8.43;;;5.65;;
10687;SDS011;5392;42.688;23.298;2022-08-19T06:24:52;9.40;;;5.50;;
10687;SDS011;5392;42.688;23.298;2022-08-19T06:27:20;8.57;;;5.32;;
10687;SDS011;5392;42.688;23.298;2022-08-19T06:29:48;8.20;;;5.80;;
10687;SDS011;5392;42.688;23.298;2022-08-19T06:32:15;7.20;;;6.35;;
10687;SDS011;5392;42.688;23.298;2022-08-19T06:34:44;5.93;;;5.47;;
10687;SDS011;5392;42.688;23.298;2022-08-19T06:37:11;8.63;;;5.22;;
10687;SDS011;5392;42.688;23.298;2022-08-19T06:39:39;7.35;;;6.00;;
10687;SDS011;5392;42.688;23.298;2022-08-19T06:42:07;11.27;;;6.65;;
10687;SDS011;5392;42.688;23.298;2022-08-19T06:44:38;7.13;;;6.07;;
10687;SDS011;5392;42.688;23.298;2022-08-19T06:47:09;6.45;;;5.35;;
10687;SDS011;5392;42.688;23.298;2022-08-19T06:49:48;13.68;;;4.97;;
10687;SDS011;5392;42.688;23.298;2022-08-19T06:52:15;6.18;;;5.47;;
10687;SDS011;5392;42.688;23.298;2022-08-19T06:54:42;7.30;;;5.43;;
10687;SDS011;5392;42.688;23.298;2022-08-19T06:57:22;10.85;;;6.43;;
10687;SDS011;5392;42.688;23.298;2022-08-19T06:59:50;6.75;;;5.32;;
10687;SDS011;5392;42.688;23.298;2022-08-19T07:02:18;6.10;;;4.45;;
10687;SDS011;5392;42.688;23.298;2022-08-19T07:04:47;6.05;;;5.35;;
10687;SDS011;5392;42.688;23.298;2022-08-19T07:07:18;7.38;;;5.40;;
10687;SDS011;5392;42.688;23.298;2022-08-19T07:09:47;6.72;;;4.97;;
10687;SDS011;5392;42.688;23.298;2022-08-19T07:12:27;6.20;;;5.13;;
10687;SDS011;5392;42.688;23.298;2022-08-19T07:14:56;5.25;;;4.80;;
10687;SDS011;5392;42.688;23.298;2022-08-19T07:17:24;6.45;;;4.68;;
10687;SDS011;5392;42.688;23.298;2022-08-19T07:19:51;7.28;;;4.30;;
10687;SDS011;5392;42.688;23.298;2022-08-19T07:22:20;6.45;;;5.13;;
10687;SDS011;5392;42.688;23.298;2022-08-19T07:24:49;6.05;;;4.28;;
10687;SDS011;5392;42.688;23.298;2022-08-19T07:27:17;7.93;;;5.03;;
10687;SDS011;5392;42.688;23.298;2022-08-19T07:29:52;6.68;;;4.38;;
10687;SDS011;5392;42.688;23.298;2022-08-19T07:32:23;5.35;;;4.75;;
10687;SDS011;5392;42.688;23.298;2022-08-19T07:34:52;6.45;;;5.10;;
10687;SDS011;5392;42.688;23.298;2022-08-19T07:37:19;5.18;;;4.55;;
10687;SDS011;5392;42.688;23.298;2022-08-19T07:39:46;15.00;;;5.18;;
10687;SDS011;5392;42.688;23.298;2022-08-19T07:42:12;5.95;;;4.75;;
10687;SDS011;5392;42.688;23.298;2022-08-19T07:44:40;8.98;;;5.75;;
10687;SDS011;5392;42.688;23.298;2022-08-19T07:47:16;6.93;;;4.35;;
10687;SDS011;5392;42.688;23.298;2022-08-19T07:50:05;6.82;;;4.63;;
10687;SDS011;5392;42.688;23.298;2022-08-19T07:52:36;8.25;;;4.70;;
10687;SDS011;5392;42.688;23.298;2022-08-19T07:55:15;6.43;;;4.65;;
10687;SDS011;5392;42.688;23.298;2022-08-19T07:58:05;7.25;;;4.32;;
10687;SDS011;5392;42.688;23.298;2022-08-19T08:00:32;8.35;;;4.68;;
10687;SDS011;5392;42.688;23.298;2022-08-19T08:02:59;10.40;;;4.80;;
10687;SDS011;5392;42.688;23.298;2022-08-19T08:05:25;9.43;;;4.55;;
10687;SDS011;5392;42.688;23.298;2022-08-19T08:08:11;4.80;;;4.40;;
10687;SDS011;5392;42.688;23.298;2022-08-19T08:10:57;8.15;;;4.47;;
10687;SDS011;5392;42.688;23.298;2022-08-19T08:13:25;8.70;;;4.22;;
10687;SDS011;5392;42.688;23.298;2022-08-19T08:15:54;4.50;;;3.80;;
10687;SDS011;5392;42.688;23.298;2022-08-19T08:18:22;7.03;;;4.00;;
10687;SDS011;5392;42.688;23.298;2022-08-19T08:20:55;3.97;;;3.40;;
10687;SDS011;5392;42.688;23.298;2022-08-19T08:23:24;3.22;;;3.00;;
10687;SDS011;5392;42.688;23.298;2022-08-19T08:25:53;5.57;;;3.65;;
10687;SDS011;5392;42.688;23.298;2022-08-19T08:28:23;8.07;;;3.60;;
10687;SDS011;5392;42.688;23.298;2022-08-19T08:30:51;6.32;;;3.88;;
10687;SDS011;5392;42.688;23.298;2022-08-19T08:33:22;5.40;;;3.17;;
10687;SDS011;5392;42.688;23.298;2022-08-19T08:36:09;6.13;;;3.25;;
10687;SDS011;5392;42.688;23.298;2022-08-19T08:38:37;6.68;;;3.75;;
10687;SDS011;5392;42.688;23.298;2022-08-19T08:43:40;4.30;;;2.92;;
10687;SDS011;5392;42.688;23.298;2022-08-19T08:46:34;3.38;;;2.53;;
10687;SDS011;5392;42.688;23.298;2022-08-19T08:51:44;6.72;;;2.40;;
10687;SDS011;5392;42.688;23.298;2022-08-19T08:54:27;4.72;;;2.22;;
10687;SDS011;5392;42.688;23.298;2022-08-19T08:57:15;3.05;;;2.13;;
10687;SDS011;5392;42.688;23.298;2022-08-19T08:59:48;3.88;;;2.10;;
10687;SDS011;5392;42.688;23.298;2022-08-19T09:02:19;4.80;;;2.38;;
10687;SDS011;5392;42.688;23.298;2022-08-19T09:04:46;6.53;;;2.38;;
10687;SDS011;5392;42.688;23.298;2022-08-19T09:16:07;2.08;;;1.88;;
10687;SDS011;5392;42.688;23.298;2022-08-19T09:18:48;2.55;;;1.02;;
10687;SDS011;5392;42.688;23.298;2022-08-19T09:21:20;3.03;;;1.25;;
10687;SDS011;5392;42.688;23.298;2022-08-19T09:23:55;3.55;;;1.02;;
10687;SDS011;5392;42.688;23.298;2022-08-19T09:26:25;3.58;;;0.90;;
10687;SDS011;5392;42.688;23.298;2022-08-19T09:29:13;1.25;;;1.15;;
10687;SDS011;5392;42.688;23.298;2022-08-19T09:31:40;1.88;;;0.70;;
10687;SDS011;5392;42.688;23.298;2022-08-19T09:34:07;3.63;;;1.33;;
10687;SDS011;5392;42.688;23.298;2022-08-19T09:36:47;2.28;;;0.93;;
10687;SDS011;5392;42.688;23.298;2022-08-19T09:39:16;2.63;;;1.48;;
10687;SDS011;5392;42.688;23.298;2022-08-19T09:41:43;2.03;;;0.80;;
10687;SDS011;5392;42.688;23.298;2022-08-19T09:44:14;1.10;;;1.00;;
10687;SDS011;5392;42.688;23.298;2022-08-19T09:46:41;1.95;;;0.70;;
10687;SDS011;5392;42.688;23.298;2022-08-19T09:49:07;1.52;;;0.70;;
10687;SDS011;5392;42.688;23.298;2022-08-19T09:51:34;1.55;;;0.95;;
10687;SDS011;5392;42.688;23.298;2022-08-19T09:54:03;1.05;;;0.70;;
10687;SDS011;5392;42.688;23.298;2022-08-19T09:56:30;1.52;;;1.00;;
10687;SDS011;5392;42.688;23.298;2022-08-19T09:58:59;0.80;;;0.80;;
10687;SDS011;5392;42.688;23.298;2022-08-19T10:01:28;4.45;;;0.90;;
10687;SDS011;5392;42.688;23.298;2022-08-19T10:03:58;3.38;;;1.00;;
10687;SDS011;5392;42.688;23.298;2022-08-19T10:06:27;4.75;;;0.80;;
10687;SDS011;5392;42.688;23.298;2022-08-19T10:09:12;3.10;;;1.00;;
10687;SDS011;5392;42.688;23.298;2022-08-19T10:11:40;2.80;;;0.90;;
10687;SDS011;5392;42.688;23.298;2022-08-19T10:14:19;1.77;;;0.80;;
10687;SDS011;5392;42.688;23.298;2022-08-19T10:16:48;3.25;;;1.00;;
10687;SDS011;5392;42.688;23.298;2022-08-19T10:19:18;1.10;;;0.80;;
10687;SDS011;5392;42.688;23.298;2022-08-19T10:21:51;1.85;;;1.20;;
10687;SDS011;5392;42.688;23.298;2022-08-19T10:24:25;3.45;;;1.02;;
10687;SDS011;5392;42.688;23.298;2022-08-19T10:26:54;3.15;;;1.25;;
10687;SDS011;5392;42.688;23.298;2022-08-19T10:29:24;0.98;;;0.90;;
10687;SDS011;5392;42.688;23.298;2022-08-19T10:32:02;1.20;;;1.00;;
10687;SDS011;5392;42.688;23.298;2022-08-19T10:34:35;2.15;;;1.05;;
10687;SDS011;5392;42.688;23.298;2022-08-19T10:37:14;2.75;;;1.33;;
10687;SDS011;5392;42.688;23.298;2022-08-19T10:39:49;2.95;;;1.48;;
10687;SDS011;5392;42.688;23.298;2022-08-19T10:42:16;1.48;;;1.35;;
10687;SDS011;5392;42.688;23.298;2022-08-19T10:44:44;1.63;;;1.30;;
10687;SDS011;5392;42.688;23.298;2022-08-19T10:47:13;1.33;;;1.30;;
10687;SDS011;5392;42.688;23.298;2022-08-19T10:49:50;6.82;;;1.20;;
10687;SDS011;5392;42.688;23.298;2022-08-19T10:52:40;3.60;;;1.27;;
10687;SDS011;5392;42.688;23.298;2022-08-19T10:55:15;2.05;;;1.05;;
10687;SDS011;5392;42.688;23.298;2022-08-19T10:58:02;3.05;;;1.10;;
10687;SDS011;5392;42.688;23.298;2022-08-19T11:00:29;6.22;;;1.45;;
10687;SDS011;5392;42.688;23.298;2022-08-19T11:02:58;1.10;;;1.10;;
10687;SDS011;5392;42.688;23.298;2022-08-19T11:05:24;3.47;;;1.60;;
10687;SDS011;5392;42.688;23.298;2022-08-19T11:07:51;6.07;;;1.83;;
10687;SDS011;5392;42.688;23.298;2022-08-19T11:10:18;2.45;;;1.33;;
10687;SDS011;5392;42.688;23.298;2022-08-19T11:12:47;3.78;;;1.83;;
10687;SDS011;5392;42.688;23.298;2022-08-19T11:15:15;2.60;;;1.00;;
10687;SDS011;5392;42.688;23.298;2022-08-19T11:17:41;1.40;;;1.08;;
10687;SDS011;5392;42.688;23.298;2022-08-19T11:20:13;4.43;;;1.50;;
10687;SDS011;5392;42.688;23.298;2022-08-19T11:22:41;1.55;;;1.23;;
10687;SDS011;5392;42.688;23.298;2022-08-19T11:25:09;2.97;;;1.20;;
10687;SDS011;5392;42.688;23.298;2022-08-19T11:27:38;1.40;;;1.30;;
10687;SDS011;5392;42.688;23.298;2022-08-19T11:30:11;1.35;;;1.25;;
10687;SDS011;5392;42.688;23.298;2022-08-19T11:32:42;3.20;;;1.40;;
10687;SDS011;5392;42.688;23.298;2022-08-19T11:35:15;3.25;;;1.63;;
10687;SDS011;5392;42.688;23.298;2022-08-19T11:37:42;1.92;;;1.83;;
10687;SDS011;5392;42.688;23.298;2022-08-19T11:40:09;2.83;;;1.58;;
10687;SDS011;5392;42.688;23.298;2022-08-19T11:42:36;5.57;;;2.15;;
10687;SDS011;5392;42.688;23.298;2022-08-19T11:45:23;3.08;;;1.33;;
10687;SDS011;5392;42.688;23.298;2022-08-19T11:47:51;4.90;;;1.48;;
10687;SDS011;5392;42.688;23.298;2022-08-19T11:50:18;1.08;;;1.08;;
10687;SDS011;5392;42.688;23.298;2022-08-19T11:52:46;2.55;;;1.20;;
10687;SDS011;5392;42.688;23.298;2022-08-19T11:55:13;1.45;;;1.20;;
10687;SDS011;5392;42.688;23.298;2022-08-19T11:57:40;1.33;;;1.27;;
10687;SDS011;5392;42.688;23.298;2022-08-19T12:00:08;1.35;;;1.30;;
10687;SDS011;5392;42.688;23.298;2022-08-19T12:02:38;1.23;;;1.23;;
10687;SDS011;5392;42.688;23.298;2022-08-19T12:05:05;1.20;;;1.10;;
10687;SDS011;5392;42.688;23.298;2022-08-19T12:07:38;1.65;;;0.95;;
10687;SDS011;5392;42.688;23.298;2022-08-19T12:10:06;1.33;;;1.25;;
10687;SDS011;5392;42.688;23.298;2022-08-19T12:12:33;1.33;;;1.13;;
10687;SDS011;5392;42.688;23.298;2022-08-19T12:15:00;1.40;;;1.40;;
10687;SDS011;5392;42.688;23.298;2022-08-19T12:17:27;1.67;;;1.52;;
10687;SDS011;5392;42.688;23.298;2022-08-19T12:19:54;2.97;;;1.30;;
10687;SDS011;5392;42.688;23.298;2022-08-19T12:22:21;2.80;;;1.60;;
10687;SDS011;5392;42.688;23.298;2022-08-19T12:24:48;1.75;;;1.45;;
10687;SDS011;5392;42.688;23.298;2022-08-19T12:27:17;2.05;;;1.10;;
10687;SDS011;5392;42.688;23.298;2022-08-19T12:30:06;1.58;;;1.48;;
10687;SDS011;5392;42.688;23.298;2022-08-19T12:32:35;5.65;;;1.70;;
10687;SDS011;5392;42.688;23.298;2022-08-19T12:35:02;2.30;;;1.38;;
10687;SDS011;5392;42.688;23.298;2022-08-19T12:37:30;1.67;;;1.05;;
10687;SDS011;5392;42.688;23.298;2022-08-19T12:39:58;2.95;;;0.88;;
10687;SDS011;5392;42.688;23.298;2022-08-19T12:42:25;1.23;;;1.10;;
10687;SDS011;5392;42.688;23.298;2022-08-19T12:44:51;1.92;;;1.50;;
10687;SDS011;5392;42.688;23.298;2022-08-19T12:47:19;2.30;;;1.15;;
10687;SDS011;5392;42.688;23.298;2022-08-19T12:49:46;1.20;;;1.15;;
10687;SDS011;5392;42.688;23.298;2022-08-19T12:52:21;3.78;;;0.88;;
10687;SDS011;5392;42.688;23.298;2022-08-19T12:54:51;1.27;;;1.00;;
10687;SDS011;5392;42.688;23.298;2022-08-19T12:57:21;1.45;;;1.08;;
10687;SDS011;5392;42.688;23.298;2022-08-19T12:59:59;2.40;;;1.30;;
10687;SDS011;5392;42.688;23.298;2022-08-19T13:02:38;3.55;;;1.17;;
10687;SDS011;5392;42.688;23.298;2022-08-19T13:05:12;1.13;;;1.02;;
10687;SDS011;5392;42.688;23.298;2022-08-19T13:07:42;5.20;;;1.40;;
10687;SDS011;5392;42.688;23.298;2022-08-19T13:10:14;1.50;;;1.38;;
10687;SDS011;5392;42.688;23.298;2022-08-19T13:12:43;1.45;;;1.35;;
10687;SDS011;5392;42.688;23.298;2022-08-19T13:15:12;3.75;;;1.20;;
10687;SDS011;5392;42.688;23.298;2022-08-19T13:17:40;2.28;;;1.25;;
10687;SDS011;5392;42.688;23.298;2022-08-19T13:20:08;5.55;;;1.30;;
10687;SDS011;5392;42.688;23.298;2022-08-19T13:22:36;1.88;;;1.00;;
10687;SDS011;5392;42.688;23.298;2022-08-19T13:25:05;2.42;;;1.38;;
10687;SDS011;5392;42.688;23.298;2022-08-19T13:27:33;3.40;;;1.10;;
10687;SDS011;5392;42.688;23.298;2022-08-19T13:30:00;4.38;;;1.25;;
10687;SDS011;5392;42.688;23.298;2022-08-19T13:32:47;1.60;;;1.50;;
10687;SDS011;5392;42.688;23.298;2022-08-19T13:35:32;4.35;;;1.80;;
10687;SDS011;5392;42.688;23.298;2022-08-19T13:37:59;1.50;;;1.30;;
10687;SDS011;5392;42.688;23.298;2022-08-19T13:40:37;6.72;;;1.70;;
10687;SDS011;5392;42.688;23.298;2022-08-19T13:43:06;1.73;;;1.45;;
10687;SDS011;5392;42.688;23.298;2022-08-19T13:45:48;3.25;;;1.63;;
10687;SDS011;5392;42.688;23.298;2022-08-19T13:48:23;3.22;;;1.60;;
10687;SDS011;5392;42.688;23.298;2022-08-19T13:50:52;2.05;;;1.10;;
10687;SDS011;5392;42.688;23.298;2022-08-19T13:53:20;1.98;;;1.48;;
10687;SDS011;5392;42.688;23.298;2022-08-19T13:55:47;1.55;;;1.45;;
10687;SDS011;5392;42.688;23.298;2022-08-19T13:58:14;1.63;;;1.52;;
10687;SDS011;5392;42.688;23.298;2022-08-19T14:00:41;1.88;;;1.67;;
10687;SDS011;5392;42.688;23.298;2022-08-19T14:03:11;1.45;;;1.35;;
10687;SDS011;5392;42.688;23.298;2022-08-19T14:05:38;1.75;;;1.65;;
10687;SDS011;5392;42.688;23.298;2022-08-19T14:08:05;5.60;;;1.70;;
10687;SDS011;5392;42.688;23.298;2022-08-19T14:10:32;2.10;;;1.30;;
10687;SDS011;5392;42.688;23.298;2022-08-19T14:13:01;2.25;;;1.73;;
10687;SDS011;5392;42.688;23.298;2022-08-19T14:15:29;3.75;;;1.23;;
10687;SDS011;5392;42.688;23.298;2022-08-19T14:17:57;1.50;;;1.38;;
10687;SDS011;5392;42.688;23.298;2022-08-19T14:20:24;1.30;;;1.20;;
10687;SDS011;5392;42.688;23.298;2022-08-19T14:22:52;1.85;;;1.40;;
10687;SDS011;5392;42.688;23.298;2022-08-19T14:25:21;1.80;;;1.45;;
10687;SDS011;5392;42.688;23.298;2022-08-19T14:27:50;1.58;;;1.48;;
10687;SDS011;5392;42.688;23.298;2022-08-19T14:30:20;1.75;;;1.30;;
10687;SDS011;5392;42.688;23.298;2022-08-19T14:32:56;2.90;;;1.30;;
10687;SDS011;5392;42.688;23.298;2022-08-19T14:35:25;3.08;;;1.33;;
10687;SDS011;5392;42.688;23.298;2022-08-19T14:37:53;2.83;;;1.70;;
10687;SDS011;5392;42.688;23.298;2022-08-19T14:40:22;3.92;;;1.45;;
10687;SDS011;5392;42.688;23.298;2022-08-19T14:42:52;3.10;;;1.90;;
10687;SDS011;5392;42.688;23.298;2022-08-19T14:45:21;2.67;;;1.88;;
10687;SDS011;5392;42.688;23.298;2022-08-19T14:47:48;2.40;;;1.63;;
10687;SDS011;5392;42.688;23.298;2022-08-19T14:50:16;2.20;;;1.58;;
10687;SDS011;5392;42.688;23.298;2022-08-19T14:52:44;2.30;;;1.50;;
10687;SDS011;5392;42.688;23.298;2022-08-19T14:55:17;3.10;;;1.83;;
10687;SDS011;5392;42.688;23.298;2022-08-19T14:57:44;4.05;;;1.90;;
10687;SDS011;5392;42.688;23.298;2022-08-19T15:00:11;4.10;;;2.15;;
10687;SDS011;5392;42.688;23.298;2022-08-19T15:02:40;2.30;;;1.80;;
10687;SDS011;5392;42.688;23.298;2022-08-19T15:05:07;1.58;;;1.40;;
10687;SDS011;5392;42.688;23.298;2022-08-19T15:07:34;1.65;;;1.55;;
10687;SDS011;5392;42.688;23.298;2022-08-19T15:10:02;2.63;;;1.95;;
10687;SDS011;5392;42.688;23.298;2022-08-19T15:12:29;2.50;;;2.17;;
10687;SDS011;5392;42.688;23.298;2022-08-19T15:14:56;2.70;;;2.10;;
10687;SDS011;5392;42.688;23.298;2022-08-19T15:17:23;2.88;;;1.77;;
10687;SDS011;5392;42.688;23.298;2022-08-19T15:20:11;3.90;;;1.88;;
10687;SDS011;5392;42.688;23.298;2022-08-19T15:22:39;3.67;;;1.88;;